メインページ
METAR-TAF:

METAR-TAF

空港 :

ウォータールー, オンタリオ州, カナダ

緯度: 43-28N, 経度: 080-23W, 海抜: 317m

現時点の気象観測

当レポートは28分前の19:00(UTC)に作成
南西の風 6kt、から西/南西の間で変化する
気温 25°C
湿度 83%
気圧 1011 hPa
視程: 14.5km
高度13000ftの千切れ雲あり

METAR: CYKF 191900Z AUTO 23006KT 190V250 9SM BKN130 25/22 A2986 RMK SLP107 DENSITY ALT 2400FT

時間: 15:28 (19:28 UTC)

予報

当レポートは4時間15分前の15:13(UTC)に作成
予報は19日の 15時(UTC)から 20日の 02時(UTC)まで有効
西/南西の風 10kt、最大20ktの突風を伴う
視程: 10km
高度2000ftの千切れ雲あり
19日の 15時(UTC)から 19日の 16時(UTC)まで一時的に
高度4000ftの千切れ雲あり
19日の 1550時(UTC)から
西/南西の風 10kt、最大20ktの突風を伴う
視程: 10km
高度3000ftの千切れ雲あり
19日の 15時(UTC)から 19日の 18時(UTC)まで一時的に
変向風 20kt、最大30ktの突風を伴う
視程: 1.6km
高度1500ftの千切れ雲あり
高度3000ftの曇り, 積乱雲.
激しい雷雨, 大雨, 靄
19日の 1800時(UTC)から
西/南西の風 12kt、最大22ktの突風を伴う
視程: 10km
高度3000ftの千切れ雲あり
19日の 18時(UTC)から 20日の 02時(UTC)まで一時的に
視程: 8.0km
高度2000ftの千切れ雲あり
弱いにわか雨, 靄
確率 30%
19日の 18時(UTC)から 20日の 02時(UTC)まで
変向風 20kt、最大35ktの突風を伴う
視程: 1.6km
高度700ftの千切れ雲あり
高度1500ftの曇り, 積乱雲.
激しい雷雨, 大雨, 靄

TAF: CYKF 191513Z 1915/2002 25010G20KT P6SM BKN020 TEMPO 1915/1916 BKN040 FM191550 24010G20KT P6SM BKN030 TEMPO 1915/1918 VRB20G30KT 1SM +TSRA BR BKN015 OVC030CB FM191800 24012G22KT P6SM BKN030 TEMPO 1918/2002 5SM -SHRA BR BKN020 PROB30 1918/2002 VRB20G35KT 1SM +TSRA BR BKN007 OVC015CB RMK FCST BASED ON AUTO OBS. NXT FCST BY 192000Z

4,000以上の空港の気象観測と天気予報(METAR報とTAF報)

利用可能な観測所は地図上に黄色い丸と赤い丸で示す。

丸の上にカーソルを重ねると観測所名を参照できる。

次にクリックすると気象観測と天気予報を参照できる。

マップの切り替え:黒色「×」印の緑ボタンをクリックして拡大、「-」印の緑ボタンをクリックして縮小、緑色の三角印をクリックして隣りの地図に切り替え


METAR-TAF: